createdAt,value
2023-05-14T00:00:37.268Z,8.85
2023-05-14T00:02:08.721Z,8.89
2023-05-14T00:03:45.254Z,8.81
2023-05-14T00:05:16.702Z,9.37
2023-05-14T00:06:48.156Z,8.95
2023-05-14T00:08:19.650Z,9.12
2023-05-14T00:09:50.981Z,8.87
2023-05-14T00:11:22.392Z,9.20
2023-05-14T00:12:53.911Z,9.39
2023-05-14T00:14:25.351Z,9.05
2023-05-14T00:15:56.746Z,9.25
2023-05-14T00:17:28.243Z,9.23
2023-05-14T00:18:59.633Z,9.15
2023-05-14T00:20:31.440Z,9.08
2023-05-14T00:22:04.225Z,9.42
2023-05-14T00:23:35.633Z,9.64
2023-05-14T00:25:07.004Z,9.71
2023-05-14T00:26:59.063Z,8.93
2023-05-14T00:28:35.649Z,8.87
2023-05-14T00:30:23.656Z,8.86
2023-05-14T00:32:23.976Z,9.30
2023-05-14T00:34:15.767Z,9.52
2023-05-14T00:36:03.160Z,9.38
2023-05-14T00:37:34.580Z,9.15
2023-05-14T00:39:05.849Z,8.91
2023-05-14T00:40:37.153Z,8.98
2023-05-14T00:42:08.431Z,8.87
2023-05-14T00:43:39.820Z,9.09
2023-05-14T00:45:11.096Z,8.73
2023-05-14T00:46:42.461Z,8.71
2023-05-14T00:48:13.854Z,9.30
2023-05-14T00:49:45.225Z,9.55
2023-05-14T00:51:16.547Z,9.15
2023-05-14T00:52:48.517Z,9.04
2023-05-14T00:54:19.912Z,9.41
2023-05-14T00:55:51.287Z,9.19
2023-05-14T00:57:22.637Z,9.12
2023-05-14T00:58:54.034Z,8.51
2023-05-14T01:00:25.739Z,8.66
2023-05-14T01:01:57.268Z,8.75
2023-05-14T01:03:28.827Z,8.68
2023-05-14T01:05:00.444Z,9.24
2023-05-14T01:06:31.914Z,9.23
2023-05-14T01:08:03.270Z,9.36
2023-05-14T01:09:34.637Z,9.68
2023-05-14T01:11:10.930Z,9.53
2023-05-14T01:12:42.340Z,9.29
2023-05-14T01:14:13.608Z,8.99
2023-05-14T01:15:44.923Z,8.79
2023-05-14T01:17:16.461Z,8.73
2023-05-14T01:18:47.875Z,8.56
2023-05-14T01:20:19.945Z,8.93
2023-05-14T01:21:51.323Z,8.74
2023-05-14T01:23:22.773Z,8.72
2023-05-14T01:24:54.147Z,8.32
2023-05-14T01:26:25.653Z,8.31
2023-05-14T01:27:57.141Z,8.40
2023-05-14T01:29:28.497Z,8.20
2023-05-14T01:30:59.901Z,8.65
2023-05-14T01:32:31.256Z,8.95
2023-05-14T01:34:02.982Z,8.87
2023-05-14T01:35:34.553Z,8.63
2023-05-14T01:37:06.114Z,8.52
2023-05-14T01:38:37.417Z,8.74
2023-05-14T01:40:08.930Z,8.92
2023-05-14T01:41:40.457Z,9.21
2023-05-14T01:43:11.845Z,8.95
2023-05-14T01:44:43.218Z,8.76
2023-05-14T01:46:14.536Z,8.65
2023-05-14T01:47:46.069Z,9.00
2023-05-14T01:49:17.481Z,9.46
2023-05-14T01:50:48.763Z,9.74
2023-05-14T01:52:20.035Z,9.27
2023-05-14T01:53:51.420Z,8.96
2023-05-14T01:55:22.667Z,8.97
2023-05-14T01:56:53.966Z,9.02
2023-05-14T01:58:25.319Z,9.18
2023-05-14T01:59:56.741Z,9.39
2023-05-14T02:01:28.132Z,9.60
2023-05-14T02:02:59.728Z,9.68
2023-05-14T02:04:31.130Z,9.51
2023-05-14T02:06:02.475Z,10.06
2023-05-14T02:07:33.832Z,9.71
2023-05-14T02:09:05.113Z,9.65
2023-05-14T02:10:36.561Z,9.61
2023-05-14T02:12:07.955Z,9.30
2023-05-14T02:13:39.241Z,9.58
2023-05-14T02:15:10.575Z,10.12
2023-05-14T02:16:42.144Z,9.74
2023-05-14T02:18:13.568Z,9.85
2023-05-14T02:19:45.341Z,9.54
2023-05-14T02:21:16.687Z,9.66
2023-05-14T02:22:48.026Z,9.59
2023-05-14T02:24:20.610Z,9.88
2023-05-14T02:25:51.867Z,9.61
2023-05-14T02:27:24.259Z,9.55
2023-05-14T02:28:55.611Z,9.32
2023-05-14T02:30:27.454Z,9.34
2023-05-14T02:31:59.358Z,9.56
2023-05-14T02:33:30.909Z,9.53
2023-05-14T02:35:02.274Z,9.37
2023-05-14T02:36:33.658Z,9.93
2023-05-14T02:38:05.104Z,9.95
2023-05-14T02:39:36.489Z,9.21
2023-05-14T02:41:08.061Z,9.50
2023-05-14T02:42:39.458Z,9.34
2023-05-14T02:44:11.019Z,9.14
2023-05-14T02:45:42.352Z,9.31
2023-05-14T02:47:13.695Z,8.99
2023-05-14T02:48:45.933Z,9.02
2023-05-14T02:50:17.238Z,9.23
2023-05-14T02:51:48.651Z,9.36
2023-05-14T02:53:20.107Z,9.29
2023-05-14T02:54:51.797Z,8.83
2023-05-14T02:56:23.163Z,8.97
2023-05-14T02:57:54.449Z,8.96
2023-05-14T02:59:25.826Z,9.03
2023-05-14T03:00:57.773Z,9.43
2023-05-14T03:02:29.689Z,9.13
2023-05-14T03:04:01.454Z,8.86
2023-05-14T03:05:32.714Z,8.89
2023-05-14T03:07:03.965Z,9.10
2023-05-14T03:08:35.370Z,8.86
2023-05-14T03:10:06.738Z,8.99
2023-05-14T03:11:38.176Z,8.88
2023-05-14T03:13:09.476Z,8.61
2023-05-14T03:14:41.286Z,8.61
2023-05-14T03:16:12.658Z,8.41
2023-05-14T03:17:44.087Z,8.47
2023-05-14T03:19:15.514Z,8.39
2023-05-14T03:20:46.836Z,8.56
2023-05-14T03:22:18.577Z,9.09
2023-05-14T03:23:50.066Z,8.64
2023-05-14T03:25:21.344Z,8.44
2023-05-14T03:26:52.726Z,8.44
2023-05-14T03:28:24.089Z,8.66
2023-05-14T03:29:55.477Z,8.49
2023-05-14T03:31:27.122Z,8.77
2023-05-14T03:32:58.637Z,8.62
2023-05-14T03:34:29.954Z,8.03
2023-05-14T03:36:01.888Z,8.24
2023-05-14T03:37:33.218Z,8.35
2023-05-14T03:39:04.566Z,8.25
2023-05-14T03:40:35.850Z,8.33
2023-05-14T03:42:07.577Z,8.95
2023-05-14T03:43:38.879Z,8.70
2023-05-14T03:45:10.120Z,8.53
2023-05-14T03:46:41.403Z,8.44
2023-05-14T03:48:14.034Z,8.56
2023-05-14T03:49:45.452Z,8.09
2023-05-14T03:51:16.832Z,8.89
2023-05-14T03:52:48.167Z,9.03
2023-05-14T03:54:19.433Z,8.39
2023-05-14T03:55:50.785Z,8.68
2023-05-14T03:57:22.091Z,8.75
2023-05-14T03:58:53.462Z,8.63
2023-05-14T04:00:25.445Z,8.45
2023-05-14T04:01:57.029Z,8.52
2023-05-14T04:03:28.515Z,8.40
2023-05-14T04:05:05.098Z,8.08
2023-05-14T04:06:36.451Z,8.08
2023-05-14T04:08:07.794Z,8.67
2023-05-14T04:09:39.259Z,8.65
2023-05-14T04:11:10.758Z,8.56
2023-05-14T04:12:42.054Z,8.24
2023-05-14T04:14:13.389Z,8.12
2023-05-14T04:15:44.729Z,8.18
2023-05-14T04:17:16.283Z,8.13
2023-05-14T04:18:47.625Z,7.96
2023-05-14T04:20:19.197Z,8.41
2023-05-14T04:21:50.527Z,8.52
2023-05-14T04:23:21.849Z,8.54
2023-05-14T04:24:53.403Z,8.56
2023-05-14T04:26:24.887Z,8.54
2023-05-14T04:27:56.430Z,8.82
2023-05-14T04:29:27.737Z,8.39
2023-05-14T04:30:59.148Z,8.22
2023-05-14T04:32:30.653Z,8.25
2023-05-14T04:34:02.075Z,8.52
2023-05-14T04:35:33.365Z,8.34
2023-05-14T04:37:04.700Z,8.10
2023-05-14T04:38:36.472Z,7.74
2023-05-14T04:40:08.191Z,7.48
2023-05-14T04:41:39.810Z,7.51
2023-05-14T04:43:11.280Z,7.71
2023-05-14T04:44:42.770Z,7.66
2023-05-14T04:46:14.227Z,7.75
2023-05-14T04:47:45.736Z,7.87
2023-05-14T04:49:17.399Z,7.46
2023-05-14T04:50:48.934Z,7.59
2023-05-14T04:52:20.358Z,7.61
2023-05-14T04:53:51.695Z,7.51
2023-05-14T04:55:23.031Z,7.58
2023-05-14T04:56:54.440Z,7.85
2023-05-14T04:58:25.714Z,7.83
2023-05-14T04:59:57.011Z,7.54
2023-05-14T05:01:28.556Z,7.67
2023-05-14T05:03:00.063Z,7.76
2023-05-14T05:04:31.458Z,8.02
2023-05-14T05:06:02.737Z,7.87
2023-05-14T05:07:34.051Z,8.08
2023-05-14T05:09:05.314Z,8.09
2023-05-14T05:10:36.724Z,8.15
2023-05-14T05:12:08.082Z,8.53
2023-05-14T05:13:39.641Z,8.33
2023-05-14T05:15:11.002Z,8.38
2023-05-14T05:16:42.533Z,8.22
2023-05-14T05:18:14.039Z,8.13
2023-05-14T05:19:45.546Z,8.02
2023-05-14T05:21:17.065Z,7.92
2023-05-14T05:22:48.443Z,7.94
2023-05-14T05:24:19.760Z,7.60
2023-05-14T05:25:51.227Z,7.33
2023-05-14T05:27:22.550Z,7.78
2023-05-14T05:28:54.246Z,7.49
2023-05-14T05:30:25.852Z,7.78
2023-05-14T05:31:57.414Z,7.50
2023-05-14T05:33:28.780Z,7.39
2023-05-14T05:35:00.049Z,7.49
2023-05-14T05:36:31.387Z,7.47
2023-05-14T05:38:49.636Z,7.62
2023-05-14T05:40:21.045Z,7.51
2023-05-14T05:41:52.409Z,7.44
2023-05-14T05:43:23.922Z,7.36
2023-05-14T05:44:56.395Z,7.48
2023-05-14T05:46:27.888Z,7.85
2023-05-14T05:47:59.321Z,7.82
2023-05-14T05:49:30.699Z,8.11
2023-05-14T05:51:02.065Z,8.24
2023-05-14T05:52:33.524Z,7.89
2023-05-14T05:54:04.964Z,8.14
2023-05-14T05:55:36.482Z,8.05
2023-05-14T05:57:07.844Z,8.35
2023-05-14T05:58:39.318Z,8.05
2023-05-14T06:00:10.601Z,8.17
2023-05-14T06:01:42.113Z,7.90
2023-05-14T06:03:13.667Z,7.96
2023-05-14T06:04:45.522Z,8.02
2023-05-14T06:06:17.317Z,8.08
2023-05-14T06:07:48.696Z,7.64
2023-05-14T06:09:20.673Z,7.61
2023-05-14T06:10:51.972Z,8.09
2023-05-14T06:12:23.392Z,7.59
2023-05-14T06:13:54.852Z,7.74
2023-05-14T06:15:26.196Z,7.69
2023-05-14T06:16:57.762Z,7.55
2023-05-14T06:18:29.332Z,7.56
2023-05-14T06:20:00.850Z,7.43
2023-05-14T06:21:32.384Z,7.27
2023-05-14T06:23:03.806Z,7.29
2023-05-14T06:24:35.492Z,6.93
2023-05-14T06:26:11.785Z,6.97
2023-05-14T06:27:43.201Z,7.13
2023-05-14T06:29:14.626Z,7.12
2023-05-14T06:31:53.956Z,7.40
2023-05-14T06:33:25.465Z,6.89
2023-05-14T06:34:56.940Z,7.02
2023-05-14T06:36:28.365Z,7.45
2023-05-14T06:37:59.927Z,7.12
2023-05-14T06:39:31.328Z,7.19
2023-05-14T06:41:03.361Z,7.35
2023-05-14T06:42:35.667Z,6.90
2023-05-14T06:44:07.287Z,6.98
2023-05-14T06:45:39.017Z,7.36
2023-05-14T06:47:10.386Z,6.68
2023-05-14T06:48:41.801Z,6.47
2023-05-14T06:50:13.380Z,6.44
2023-05-14T06:51:44.759Z,6.56
2023-05-14T06:53:16.127Z,6.62
2023-05-14T06:54:47.504Z,6.21
2023-05-14T06:56:19.172Z,6.37
2023-05-14T06:57:50.584Z,6.24
2023-05-14T06:59:21.880Z,6.44
2023-05-14T07:00:53.615Z,6.46
2023-05-14T07:02:25.192Z,6.42
2023-05-14T07:03:56.764Z,5.69
2023-05-14T07:05:28.338Z,5.39
2023-05-14T07:06:59.822Z,5.21
2023-05-14T07:08:31.285Z,5.25
2023-05-14T07:10:02.621Z,5.24
2023-05-14T07:11:34.025Z,5.04
2023-05-14T07:13:05.739Z,4.90
2023-05-14T07:14:37.247Z,4.58
2023-05-14T07:16:08.581Z,4.65
2023-05-14T07:17:40.288Z,4.51
2023-05-14T07:19:11.905Z,4.61
2023-05-14T07:20:43.465Z,4.61
2023-05-14T07:22:14.890Z,4.48
2023-05-14T07:23:46.255Z,4.52
2023-05-14T07:25:17.686Z,4.55
2023-05-14T07:26:49.421Z,4.18
2023-05-14T07:28:20.755Z,4.30
2023-05-14T07:29:52.133Z,4.24
2023-05-14T07:31:23.612Z,3.99
2023-05-14T07:32:55.369Z,4.09
2023-05-14T07:34:26.925Z,3.97
2023-05-14T07:35:58.314Z,3.95
2023-05-14T07:37:29.660Z,4.05
2023-05-14T07:39:00.966Z,3.69
2023-05-14T07:40:32.514Z,3.86
2023-05-14T07:42:03.883Z,3.67
2023-05-14T07:43:35.381Z,3.39
2023-05-14T07:45:07.176Z,3.23
2023-05-14T07:46:38.769Z,3.29
2023-05-14T07:48:10.166Z,3.28
2023-05-14T07:49:41.764Z,3.62
2023-05-14T07:51:13.157Z,3.22
2023-05-14T07:55:13.672Z,3.03
2023-05-14T07:56:45.073Z,2.99
2023-05-14T07:58:16.761Z,2.78
2023-05-14T07:59:48.485Z,2.62
2023-05-14T08:01:19.999Z,2.55
2023-05-14T08:02:51.738Z,2.71
2023-05-14T08:04:23.561Z,2.58
2023-05-14T08:05:55.630Z,2.41
2023-05-14T08:07:27.124Z,2.39
2023-05-14T08:08:58.682Z,2.54
2023-05-14T08:10:30.349Z,2.63
2023-05-14T08:12:01.928Z,2.57
2023-05-14T08:13:33.319Z,2.61
2023-05-14T08:15:04.751Z,2.50
2023-05-14T08:16:36.269Z,2.56
2023-05-14T08:18:07.899Z,2.34
2023-05-14T08:19:39.399Z,2.23
2023-05-14T08:21:10.718Z,2.20
2023-05-14T08:22:42.190Z,2.21
2023-05-14T08:24:13.541Z,2.29
2023-05-14T08:25:45.155Z,2.10
2023-05-14T08:27:16.512Z,2.14
2023-05-14T08:28:47.961Z,2.07
2023-05-14T08:30:19.652Z,1.83
2023-05-14T08:31:51.384Z,1.93
2023-05-14T08:33:22.770Z,1.98
2023-05-14T08:34:54.184Z,2.09
2023-05-14T08:36:35.796Z,1.92
2023-05-14T08:38:07.200Z,1.90
2023-05-14T08:39:38.707Z,1.91
2023-05-14T08:41:10.166Z,1.79
2023-05-14T08:42:41.955Z,1.78
2023-05-14T08:44:13.324Z,1.90
2023-05-14T08:45:45.288Z,1.78
2023-05-14T08:47:16.708Z,1.85
2023-05-14T08:48:48.520Z,1.80
2023-05-14T08:50:21.929Z,2.11
2023-05-14T08:51:55.820Z,1.96
2023-05-14T08:53:27.191Z,2.00
2023-05-14T08:54:58.835Z,1.93
2023-05-14T08:56:30.419Z,2.14
2023-05-14T08:58:01.900Z,2.12
2023-05-14T08:59:33.346Z,2.18
2023-05-14T09:01:04.781Z,2.16
2023-05-14T09:02:36.407Z,2.21
2023-05-14T09:04:08.109Z,2.30
2023-05-14T09:05:40.080Z,2.29
2023-05-14T09:07:11.621Z,2.33
2023-05-14T09:08:42.991Z,2.35
2023-05-14T09:10:14.643Z,2.15
2023-05-14T09:11:46.080Z,2.22
2023-05-14T09:13:17.563Z,2.28
2023-05-14T09:14:49.630Z,2.44
2023-05-14T09:16:21.235Z,2.22
2023-05-14T09:17:52.732Z,2.28
2023-05-14T09:19:24.138Z,2.51
2023-05-14T09:20:55.720Z,2.41
2023-05-14T09:22:27.517Z,2.18
2023-05-14T09:23:59.130Z,2.44
2023-05-14T09:25:30.651Z,2.50
2023-05-14T09:27:02.130Z,2.67
2023-05-14T09:28:33.749Z,2.82
2023-05-14T09:30:05.212Z,2.54
2023-05-14T09:31:36.788Z,2.15
2023-05-14T09:33:08.276Z,1.91
2023-05-14T09:34:39.934Z,2.31
2023-05-14T09:36:11.492Z,2.21
2023-05-14T09:37:42.912Z,2.18
2023-05-14T09:39:14.394Z,2.00
2023-05-14T09:40:45.781Z,2.00
2023-05-14T09:42:17.174Z,1.93
2023-05-14T09:43:48.692Z,1.71
2023-05-14T09:45:20.167Z,1.76
2023-05-14T09:46:51.654Z,1.78
2023-05-14T09:48:23.224Z,2.01
2023-05-14T09:49:54.805Z,1.90
2023-05-14T09:51:26.155Z,1.91
2023-05-14T09:52:57.791Z,1.84
2023-05-14T09:54:29.310Z,1.74
2023-05-14T09:56:00.752Z,1.84
2023-05-14T09:57:32.127Z,2.00
2023-05-14T09:59:03.501Z,1.98
2023-05-14T10:00:34.962Z,1.98
2023-05-14T10:02:06.389Z,1.77
2023-05-14T10:03:37.870Z,1.64
2023-05-14T10:05:09.174Z,1.91
2023-05-14T10:06:40.566Z,1.66
2023-05-14T10:08:13.062Z,1.64
2023-05-14T10:09:44.673Z,1.65
2023-05-14T10:11:16.079Z,1.75
2023-05-14T10:12:47.408Z,1.76
2023-05-14T10:14:18.823Z,1.72
2023-05-14T10:15:51.678Z,1.73
2023-05-14T10:17:23.061Z,2.03
2023-05-14T10:18:56.484Z,1.98
2023-05-14T10:20:28.796Z,1.73
2023-05-14T10:22:05.461Z,1.83
2023-05-14T10:23:36.956Z,1.70
2023-05-14T10:25:10.512Z,1.67
2023-05-14T10:26:41.937Z,1.68
2023-05-14T10:28:13.456Z,1.64
2023-05-14T10:29:45.177Z,1.74
2023-05-14T10:31:16.639Z,1.67
2023-05-14T10:32:58.038Z,1.58
2023-05-14T10:34:29.533Z,1.54
2023-05-14T10:36:00.978Z,1.66
2023-05-14T10:37:32.468Z,1.67
2023-05-14T10:39:03.947Z,1.57
2023-05-14T10:40:35.336Z,1.70
2023-05-14T10:42:06.951Z,1.62
2023-05-14T10:43:38.363Z,1.61
2023-05-14T10:45:09.849Z,1.63
2023-05-14T10:46:41.329Z,1.63
2023-05-14T10:48:12.822Z,1.58
2023-05-14T10:49:44.500Z,1.81
2023-05-14T10:51:15.943Z,1.80
2023-05-14T10:52:47.462Z,1.78
2023-05-14T10:54:24.171Z,1.49
2023-05-14T10:55:55.804Z,1.60
2023-05-14T10:57:27.352Z,1.74
2023-05-14T10:58:58.965Z,1.48
2023-05-14T11:00:30.532Z,1.49
2023-05-14T11:02:02.068Z,1.63
2023-05-14T11:03:33.571Z,1.89
2023-05-14T11:05:05.211Z,2.85
2023-05-14T11:06:36.705Z,2.43
2023-05-14T11:08:08.238Z,1.64
2023-05-14T11:09:39.811Z,1.74
2023-05-14T11:11:11.337Z,1.74
2023-05-14T11:12:43.057Z,1.84
2023-05-14T11:14:15.317Z,1.72
2023-05-14T11:15:56.898Z,1.72
2023-05-14T11:17:38.770Z,1.81
2023-05-14T11:19:26.169Z,1.66
2023-05-14T11:20:57.700Z,1.68
2023-05-14T11:22:29.212Z,1.70
2023-05-14T11:24:00.680Z,1.71
2023-05-14T11:25:32.226Z,1.81
2023-05-14T11:27:03.852Z,1.83
2023-05-14T11:28:35.430Z,1.92
2023-05-14T11:30:06.957Z,1.92
2023-05-14T11:31:38.490Z,1.65
2023-05-14T11:33:10.038Z,1.65
2023-05-14T11:34:41.721Z,1.77
2023-05-14T11:36:18.292Z,1.80
2023-05-14T11:37:49.943Z,1.63
2023-05-14T11:39:21.484Z,1.74
2023-05-14T11:41:12.812Z,1.73
2023-05-14T11:42:56.467Z,1.57
2023-05-14T11:44:27.944Z,1.49
2023-05-14T11:45:59.459Z,1.46
2023-05-14T11:47:57.630Z,1.58
2023-05-14T11:49:29.323Z,1.62
2023-05-14T11:51:05.881Z,1.77
2023-05-14T11:52:37.428Z,1.68
2023-05-14T11:54:08.865Z,1.56
2023-05-14T11:55:40.371Z,1.66
2023-05-14T11:57:11.951Z,1.58
2023-05-14T11:58:48.490Z,1.61
2023-05-14T12:00:20.256Z,1.50
2023-05-14T12:01:51.762Z,1.51
2023-05-14T12:03:23.969Z,1.43
2023-05-14T12:05:15.734Z,1.49
2023-05-14T12:07:40.973Z,1.53
2023-05-14T12:09:12.712Z,1.66
2023-05-14T12:10:44.994Z,1.65
2023-05-14T12:12:17.067Z,1.48
2023-05-14T12:13:48.895Z,1.49
2023-05-14T12:15:20.424Z,1.30
2023-05-14T12:17:06.486Z,1.45
2023-05-14T12:18:55.431Z,1.35
2023-05-14T12:20:27.077Z,1.34
2023-05-14T12:22:04.175Z,1.35
2023-05-14T12:23:42.009Z,1.55
2023-05-14T12:25:14.532Z,1.43
2023-05-14T12:26:46.667Z,1.35
2023-05-14T12:28:18.409Z,1.28
2023-05-14T12:29:55.104Z,1.37
2023-05-14T12:31:26.747Z,1.34
2023-05-14T12:32:58.458Z,1.42
2023-05-14T12:34:41.254Z,1.39
2023-05-14T12:36:21.664Z,1.40
2023-05-14T12:37:54.295Z,1.27
2023-05-14T12:39:25.805Z,1.30
2023-05-14T12:40:57.379Z,1.22
2023-05-14T12:42:29.041Z,1.29
2023-05-14T12:44:00.666Z,1.34
2023-05-14T12:45:32.176Z,1.35
2023-05-14T12:47:03.845Z,1.52
2023-05-14T12:48:35.585Z,1.51
2023-05-14T12:50:08.078Z,1.45
2023-05-14T12:51:39.669Z,1.54
2023-05-14T12:53:16.109Z,1.56
2023-05-14T12:54:47.581Z,1.54
2023-05-14T12:56:19.034Z,1.54
2023-05-14T12:57:50.484Z,1.42
2023-05-14T12:59:21.955Z,1.48
2023-05-14T13:00:58.526Z,1.66
2023-05-14T13:02:29.994Z,1.37
2023-05-14T13:04:06.728Z,1.47
2023-05-14T13:05:38.474Z,1.51
2023-05-14T13:07:09.958Z,1.58
2023-05-14T13:08:42.709Z,3.04
2023-05-14T13:10:14.386Z,2.29
2023-05-14T13:11:45.868Z,1.57
2023-05-14T13:13:17.405Z,1.36
2023-05-14T13:14:48.925Z,1.43
2023-05-14T13:16:20.623Z,1.43
2023-05-14T13:17:52.257Z,1.72
2023-05-14T13:19:23.806Z,1.44
2023-05-14T13:21:00.549Z,1.39
2023-05-14T13:22:32.077Z,1.24
2023-05-14T13:24:03.664Z,1.02
2023-05-14T13:25:35.206Z,1.16
2023-05-14T13:27:06.750Z,1.23
2023-05-14T13:28:38.224Z,1.50
2023-05-14T13:30:09.686Z,1.64
2023-05-14T13:31:41.191Z,1.54
2023-05-14T13:33:12.687Z,1.59
2023-05-14T13:34:44.185Z,1.47
2023-05-14T13:36:15.686Z,1.29
2023-05-14T13:37:47.172Z,1.22
2023-05-14T13:39:18.698Z,1.21
2023-05-14T13:40:50.204Z,1.28
2023-05-14T13:42:21.792Z,1.15
2023-05-14T13:43:53.280Z,1.28
2023-05-14T13:45:25.071Z,1.14
2023-05-14T13:46:57.101Z,1.35
2023-05-14T13:48:28.664Z,1.54
2023-05-14T13:50:00.281Z,1.62
2023-05-14T13:51:31.795Z,1.60
2023-05-14T13:53:03.373Z,2.52
2023-05-14T13:54:34.868Z,1.72
2023-05-14T13:56:11.340Z,1.53
2023-05-14T13:57:42.990Z,1.36
2023-05-14T13:59:14.454Z,1.41
2023-05-14T14:00:45.959Z,1.43
2023-05-14T14:02:17.476Z,1.47
2023-05-14T14:03:48.950Z,1.52
2023-05-14T14:05:20.459Z,1.46
2023-05-14T14:06:52.268Z,1.40
2023-05-14T14:08:24.659Z,1.47
2023-05-14T14:09:56.305Z,1.36
2023-05-14T14:11:27.838Z,1.28
2023-05-14T14:12:59.520Z,1.35
2023-05-14T14:14:31.542Z,1.43
2023-05-14T14:16:03.253Z,1.17
2023-05-14T14:17:40.082Z,1.20
2023-05-14T14:19:11.747Z,1.40
2023-05-14T14:20:43.377Z,1.38
2023-05-14T14:22:14.858Z,1.52
2023-05-14T14:23:46.421Z,1.49
2023-05-14T14:25:17.923Z,1.34
2023-05-14T14:26:49.541Z,1.38
2023-05-14T14:28:26.406Z,1.23
2023-05-14T14:29:58.153Z,1.29
2023-05-14T14:31:30.138Z,1.26
2023-05-14T14:33:01.727Z,1.11
2023-05-14T14:34:33.201Z,1.22
2023-05-14T14:36:09.754Z,1.20
2023-05-14T14:37:41.484Z,1.11
2023-05-14T14:39:13.070Z,1.54
2023-05-14T14:40:44.656Z,1.51
2023-05-14T14:42:16.238Z,1.23
2023-05-14T14:43:47.937Z,1.09
2023-05-14T14:45:24.871Z,1.18
2023-05-14T14:47:01.670Z,1.11
2023-05-14T14:48:33.177Z,1.11
2023-05-14T14:50:04.837Z,1.22
2023-05-14T14:51:36.693Z,1.24
2023-05-14T14:53:08.466Z,1.51
2023-05-14T14:54:40.284Z,1.25
2023-05-14T14:56:11.821Z,1.07
2023-05-14T14:57:43.396Z,1.04
2023-05-14T14:59:16.032Z,1.10
2023-05-14T15:00:47.692Z,1.07
2023-05-14T15:02:19.394Z,1.25
2023-05-14T15:03:51.097Z,1.11
2023-05-14T15:05:23.202Z,1.17
2023-05-14T15:06:54.960Z,1.15
2023-05-14T15:08:26.584Z,1.24
2023-05-14T15:09:58.219Z,1.23
2023-05-14T15:11:30.134Z,1.33
2023-05-14T15:13:01.752Z,1.34
2023-05-14T15:14:33.276Z,1.45
2023-05-14T15:16:05.044Z,1.37
2023-05-14T15:17:36.739Z,1.32
2023-05-14T15:19:08.541Z,1.23
2023-05-14T15:20:40.150Z,1.09
2023-05-14T15:22:11.633Z,1.25
2023-05-14T15:23:43.215Z,1.45
2023-05-14T15:25:14.716Z,1.32
2023-05-14T15:26:46.447Z,1.37
2023-05-14T15:28:17.942Z,1.09
2023-05-14T15:29:49.490Z,1.23
2023-05-14T15:31:21.038Z,1.26
2023-05-14T15:32:52.684Z,1.29
2023-05-14T15:34:25.048Z,1.37
2023-05-14T15:35:56.577Z,1.07
2023-05-14T15:37:28.380Z,1.18
2023-05-14T15:38:59.930Z,1.14
2023-05-14T15:40:31.454Z,1.19
2023-05-14T15:42:02.940Z,0.98
2023-05-14T15:43:34.430Z,0.80
2023-05-14T15:45:06.085Z,0.86
2023-05-14T15:46:37.774Z,0.89
2023-05-14T15:48:09.368Z,1.04
2023-05-14T15:49:41.006Z,1.19
2023-05-14T15:51:13.351Z,1.42
2023-05-14T15:52:44.869Z,1.27
2023-05-14T15:54:16.391Z,1.38
2023-05-14T15:55:47.898Z,1.53
2023-05-14T15:57:20.107Z,1.37
2023-05-14T15:58:51.971Z,1.53
2023-05-14T16:00:24.197Z,1.73
2023-05-14T16:01:55.900Z,1.75
2023-05-14T16:03:31.334Z,1.40
2023-05-14T16:05:03.429Z,1.36
2023-05-14T16:06:36.288Z,1.42
2023-05-14T16:08:08.969Z,1.71
2023-05-14T16:09:40.562Z,1.37
2023-05-14T16:11:12.114Z,1.33
2023-05-14T16:12:43.865Z,1.33
2023-05-14T16:14:15.486Z,1.48
2023-05-14T16:15:47.031Z,1.45
2023-05-14T16:17:18.511Z,1.36
2023-05-14T16:18:50.212Z,1.34
2023-05-14T16:20:21.878Z,1.46
2023-05-14T16:21:53.621Z,1.52
2023-05-14T16:23:25.211Z,1.54
2023-05-14T16:24:56.718Z,1.84
2023-05-14T16:26:28.282Z,2.51
2023-05-14T16:27:59.995Z,2.38
2023-05-14T16:29:34.455Z,1.84
2023-05-14T16:31:06.023Z,1.74
2023-05-14T16:32:37.651Z,1.53
2023-05-14T16:34:09.253Z,1.45
2023-05-14T16:35:40.981Z,1.54
2023-05-14T16:37:13.946Z,1.57
2023-05-14T16:39:05.226Z,1.36
2023-05-14T16:40:48.520Z,1.88
2023-05-14T16:42:20.574Z,1.74
2023-05-14T16:43:52.091Z,1.73
2023-05-14T16:45:28.592Z,1.70
2023-05-14T16:47:00.063Z,1.55
2023-05-14T16:48:32.004Z,1.66
2023-05-14T16:50:13.568Z,1.76
2023-05-14T16:51:50.195Z,1.76
2023-05-14T16:53:21.868Z,1.56
2023-05-14T16:54:53.570Z,1.64
2023-05-14T16:56:25.047Z,1.65
2023-05-14T16:57:56.723Z,1.77
2023-05-14T16:59:28.201Z,1.57
2023-05-14T17:00:59.866Z,1.74
2023-05-14T17:02:31.487Z,1.69
2023-05-14T17:04:03.085Z,1.74
2023-05-14T17:05:34.866Z,1.64
2023-05-14T17:07:06.636Z,1.77
2023-05-14T17:08:38.215Z,1.73
2023-05-14T17:10:09.827Z,1.75
2023-05-14T17:11:41.465Z,1.84
2023-05-14T17:13:13.168Z,1.76
2023-05-14T17:14:44.671Z,1.74
2023-05-14T17:16:16.535Z,1.73
2023-05-14T17:17:58.082Z,1.68
2023-05-14T17:19:29.799Z,1.68
2023-05-14T17:21:07.350Z,1.65
2023-05-14T17:22:38.833Z,1.71
2023-05-14T17:24:10.367Z,1.59
2023-05-14T17:25:51.881Z,1.95
2023-05-14T17:27:23.368Z,1.69
2023-05-14T17:28:54.802Z,1.64
2023-05-14T17:30:26.256Z,1.49
2023-05-14T17:31:58.037Z,1.44
2023-05-14T17:33:30.187Z,1.39
2023-05-14T17:35:01.915Z,1.43
2023-05-14T17:36:33.492Z,1.34
2023-05-14T17:38:10.285Z,1.51
2023-05-14T17:39:41.768Z,1.69
2023-05-14T17:41:29.342Z,1.47
2023-05-14T17:43:01.767Z,1.48
2023-05-14T17:44:53.081Z,1.54
2023-05-14T17:46:39.679Z,1.62
2023-05-14T17:48:21.272Z,1.48
2023-05-14T17:49:52.744Z,1.50
2023-05-14T17:51:24.323Z,1.46
2023-05-14T17:52:56.777Z,1.46
2023-05-14T17:54:28.392Z,1.57
2023-05-14T17:56:00.541Z,1.47
2023-05-14T17:57:32.045Z,1.69
2023-05-14T17:59:08.439Z,1.52
2023-05-14T18:00:50.021Z,1.60
2023-05-14T18:02:21.452Z,1.57
2023-05-14T18:03:52.964Z,1.43
2023-05-14T18:05:24.835Z,1.57
2023-05-14T18:06:56.468Z,1.48
2023-05-14T18:08:32.974Z,1.46
2023-05-14T18:10:04.442Z,1.55
2023-05-14T18:11:46.095Z,1.69
2023-05-14T18:13:18.211Z,1.47
2023-05-14T18:14:59.716Z,1.47
2023-05-14T18:16:31.190Z,1.37
2023-05-14T18:18:02.730Z,1.40
2023-05-14T18:19:34.392Z,1.42
2023-05-14T18:21:05.833Z,1.39
2023-05-14T18:22:37.391Z,1.31
2023-05-14T18:24:09.044Z,1.34
2023-05-14T18:26:10.237Z,1.42
2023-05-14T18:27:41.942Z,1.56
2023-05-14T18:29:28.451Z,1.52
2023-05-14T18:31:09.901Z,1.46
2023-05-14T18:32:41.281Z,1.43
2023-05-14T18:34:12.690Z,1.46
2023-05-14T18:35:44.141Z,1.56
2023-05-14T18:37:15.573Z,1.50
2023-05-14T18:38:46.984Z,1.65
2023-05-14T18:40:18.984Z,1.79
2023-05-14T18:41:50.495Z,1.66
2023-05-14T18:43:21.970Z,1.69
2023-05-14T18:44:53.579Z,1.83
2023-05-14T18:46:25.127Z,1.93
2023-05-14T18:47:56.591Z,1.78
2023-05-14T18:49:28.601Z,1.92
2023-05-14T18:51:00.157Z,2.02
2023-05-14T18:52:31.672Z,1.88
2023-05-14T18:54:03.070Z,1.83
2023-05-14T18:55:35.084Z,1.96
2023-05-14T18:57:06.520Z,1.87
2023-05-14T18:58:37.889Z,1.83
2023-05-14T19:00:09.331Z,2.02
2023-05-14T19:01:40.887Z,1.89
2023-05-14T19:03:13.523Z,1.79
2023-05-14T19:04:52.477Z,1.77
2023-05-14T19:06:24.500Z,1.78
2023-05-14T19:07:56.020Z,1.92
2023-05-14T19:09:27.473Z,1.77
2023-05-14T19:10:58.855Z,1.97
2023-05-14T19:12:30.725Z,1.98
2023-05-14T19:14:02.199Z,2.16
2023-05-14T19:15:33.693Z,1.90
2023-05-14T19:17:38.694Z,2.16
2023-05-14T19:19:10.147Z,2.13
2023-05-14T19:20:41.633Z,2.14
2023-05-14T19:22:13.169Z,2.09
2023-05-14T19:23:45.417Z,2.09
2023-05-14T19:25:16.816Z,2.07
2023-05-14T19:26:48.169Z,2.00
2023-05-14T19:28:19.972Z,1.92
2023-05-14T19:29:52.826Z,2.04
2023-05-14T19:31:25.748Z,2.07
2023-05-14T19:32:57.345Z,1.94
2023-05-14T19:34:29.028Z,1.67
2023-05-14T19:36:00.413Z,1.72
2023-05-14T19:37:32.014Z,1.94
2023-05-14T19:39:03.583Z,1.92
2023-05-14T19:40:35.260Z,1.80
2023-05-14T19:42:06.902Z,1.87
2023-05-14T19:43:38.378Z,1.82
2023-05-14T19:45:10.388Z,2.06
2023-05-14T19:46:41.919Z,1.99
2023-05-14T19:48:13.492Z,2.01
2023-05-14T19:49:46.020Z,1.91
2023-05-14T19:51:18.115Z,1.99
2023-05-14T19:52:50.929Z,1.98
2023-05-14T19:54:22.472Z,2.06
2023-05-14T19:55:54.126Z,2.50
2023-05-14T19:57:25.869Z,2.42
2023-05-14T19:58:57.249Z,2.12
2023-05-14T20:00:29.074Z,2.19
2023-05-14T20:02:01.266Z,2.26
2023-05-14T20:03:32.801Z,2.20
2023-05-14T20:05:04.481Z,2.12
2023-05-14T20:06:36.908Z,2.13
2023-05-14T20:08:09.198Z,2.58
2023-05-14T20:09:41.702Z,2.59
2023-05-14T20:11:13.432Z,2.48
2023-05-14T20:12:45.188Z,2.21
2023-05-14T20:14:16.858Z,2.23
2023-05-14T20:15:48.630Z,2.22
2023-05-14T20:17:20.131Z,2.19
2023-05-14T20:18:51.702Z,2.40
2023-05-14T20:20:33.906Z,2.36
2023-05-14T20:22:05.689Z,2.42
2023-05-14T20:23:37.226Z,2.53
2023-05-14T20:25:08.699Z,2.32
2023-05-14T20:26:40.518Z,2.28
2023-05-14T20:28:12.132Z,2.47
2023-05-14T20:29:43.663Z,2.38
2023-05-14T20:31:15.188Z,2.28
2023-05-14T20:32:46.920Z,2.53
2023-05-14T20:34:18.430Z,2.62
2023-05-14T20:35:50.279Z,2.84